Time;durP1;ratioP1;P1;durP2;ratioP2;P2;SDS_P1;SDS_P2;PMS_P1;PMS_P2;Temp;Humidity;BMP_temperature;BMP_pressure;BME280_temperature;BME280_humidity;BME280_pressure;Samples;Min_cycle;Max_cycle;Signal;HPM_P1;HPM_P2
2021/09/21 00:01:50;;;;;;;8.43;7.73;;;;;;;;;;5122113;27;24969;-60
2021/09/21 00:04:15;;;;;;;8.82;8.10;;;;;;;;;;5121619;27;24429;-60
2021/09/21 00:06:40;;;;;;;8.65;7.95;;;;;;;;;;5126621;27;24421;-60
2021/09/21 00:09:05;;;;;;;7.33;6.73;;;;;;;;;;5123617;27;24500;-60
2021/09/21 00:11:30;;;;;;;7.40;6.80;;;;;;;;;;5120367;27;24406;-62
2021/09/21 00:13:57;;;;;;;6.90;6.40;;;;;;;;;;5114877;27;24879;-62
2021/09/21 00:16:22;;;;;;;7.00;6.40;;;;;;;;;;5127168;27;24826;-62
2021/09/21 00:18:47;;;;;;;7.90;7.30;;;;;;;;;;5128416;27;25024;-62
2021/09/21 00:21:13;;;;;;;7.18;6.60;;;;;;;;;;5124663;27;24428;-62
2021/09/21 00:23:38;;;;;;;8.43;7.73;;;;;;;;;;5127697;27;24515;-61
2021/09/21 00:26:03;;;;;;;8.10;7.40;;;;;;;;;;5125276;27;24995;-60
2021/09/21 00:28:28;;;;;;;8.20;7.50;;;;;;;;;;5124527;27;24421;-60
2021/09/21 00:30:54;;;;;;;6.97;6.47;;;;;;;;;;5125098;27;24409;-60
2021/09/21 00:33:22;;;;;;;7.03;6.43;;;;;;;;;;5121756;27;24557;-62
2021/09/21 00:35:51;;;;;;;7.25;6.65;;;;;;;;;;5122810;27;24513;-62
2021/09/21 00:38:17;;;;;;;7.90;7.30;;;;;;;;;;5121475;27;24466;-62
2021/09/21 00:40:43;;;;;;;6.95;6.45;;;;;;;;;;5127051;27;24456;-61
2021/09/21 00:43:08;;;;;;;8.00;7.40;;;;;;;;;;5122917;27;24429;-62
2021/09/21 00:45:33;;;;;;;8.77;8.03;;;;;;;;;;5127133;27;24512;-61
2021/09/21 00:47:58;;;;;;;7.80;7.10;;;;;;;;;;5121028;27;24951;-62
2021/09/21 00:50:24;;;;;;;8.37;7.67;;;;;;;;;;5116751;27;24482;-62
2021/09/21 00:52:50;;;;;;;8.00;7.30;;;;;;;;;;5123948;27;24417;-61
2021/09/21 00:55:16;;;;;;;8.10;7.40;;;;;;;;;;5124897;27;24494;-60
2021/09/21 00:57:42;;;;;;;7.90;7.20;;;;;;;;;;5121091;27;24409;-62
2021/09/21 01:00:08;;;;;;;7.27;6.60;;;;;;;;;;5121927;27;24651;-62
2021/09/21 01:02:33;;;;;;;7.90;7.20;;;;;;;;;;5121180;27;24436;-62
2021/09/21 01:04:58;;;;;;;6.77;6.27;;;;;;;;;;5122566;27;24470;-62
2021/09/21 01:07:24;;;;;;;6.60;6.10;;;;;;;;;;5126556;27;24461;-63
2021/09/21 01:09:49;;;;;;;6.90;6.30;;;;;;;;;;5125618;27;24423;-60
2021/09/21 01:12:14;;;;;;;6.95;6.35;;;;;;;;;;5125699;27;24470;-60
2021/09/21 01:14:39;;;;;;;6.03;5.53;;;;;;;;;;5121321;27;24405;-61
2021/09/21 01:17:04;;;;;;;6.53;6.00;;;;;;;;;;5126786;27;24466;-60
2021/09/21 01:19:30;;;;;;;6.93;6.43;;;;;;;;;;5120327;27;24413;-60
2021/09/21 01:21:55;;;;;;;7.25;6.75;;;;;;;;;;5125094;27;25020;-60
2021/09/21 01:24:20;;;;;;;7.60;6.83;;;;;;;;;;5124959;27;24448;-61
2021/09/21 01:26:46;;;;;;;6.88;6.28;;;;;;;;;;5118908;27;24428;-61
2021/09/21 01:29:11;;;;;;;7.40;6.80;;;;;;;;;;5113446;28;24830;-61
2021/09/21 01:31:39;;;;;;;7.70;7.10;;;;;;;;;;5124579;27;24512;-61
2021/09/21 01:34:04;;;;;;;7.38;6.78;;;;;;;;;;5120619;27;24544;-61
2021/09/21 01:36:30;;;;;;;7.90;7.30;;;;;;;;;;5109301;28;24521;-61
2021/09/21 01:38:55;;;;;;;6.60;6.00;;;;;;;;;;5122819;27;24432;-61
2021/09/21 01:41:20;;;;;;;6.50;6.00;;;;;;;;;;5119304;28;24516;-61
2021/09/21 01:43:46;;;;;;;6.90;6.40;;;;;;;;;;5122959;28;24420;-61
2021/09/21 01:46:13;;;;;;;7.07;6.57;;;;;;;;;;5120754;28;24439;-61
2021/09/21 01:48:38;;;;;;;6.78;6.28;;;;;;;;;;5116176;28;24445;-61
2021/09/21 01:51:07;;;;;;;7.50;6.90;;;;;;;;;;5119595;28;24429;-61
2021/09/21 01:53:58;;;;;;;7.63;7.03;;;;;;;;;;5118065;28;24527;-61
2021/09/21 01:59:08;;;;;;;7.13;6.53;;;;;;;;;;5122033;27;24750;-60
2021/09/21 02:01:33;;;;;;;7.18;6.57;;;;;;;;;;5125432;28;24409;-61
2021/09/21 02:03:59;;;;;;;7.20;6.60;;;;;;;;;;5124909;28;24433;-61
2021/09/21 02:06:39;;;;;;;6.88;6.38;;;;;;;;;;5125503;28;24548;-60
2021/09/21 02:09:06;;;;;;;7.90;7.20;;;;;;;;;;5123670;28;24454;-59
2021/09/21 02:11:32;;;;;;;8.10;7.40;;;;;;;;;;5120312;28;24443;-60
2021/09/21 02:13:58;;;;;;;7.32;6.80;;;;;;;;;;5126177;28;24792;-60
2021/09/21 02:16:24;;;;;;;7.05;6.55;;;;;;;;;;5118550;28;24726;-60
2021/09/21 02:18:49;;;;;;;7.18;6.57;;;;;;;;;;5125146;28;24408;-60
2021/09/21 02:21:14;;;;;;;7.35;6.75;;;;;;;;;;5123041;28;24498;-61
2021/09/21 02:23:39;;;;;;;6.82;6.22;;;;;;;;;;5125665;28;24482;-60
2021/09/21 02:26:05;;;;;;;6.60;6.10;;;;;;;;;;5122380;27;25048;-60
2021/09/21 02:28:30;;;;;;;6.80;6.30;;;;;;;;;;5124477;27;24863;-60
2021/09/21 02:30:55;;;;;;;6.70;6.10;;;;;;;;;;5124286;28;24814;-60
2021/09/21 02:33:20;;;;;;;7.05;6.38;;;;;;;;;;5125345;28;24548;-61
2021/09/21 02:35:45;;;;;;;5.97;5.47;;;;;;;;;;5115234;28;24417;-61
2021/09/21 02:38:10;;;;;;;7.00;6.50;;;;;;;;;;5118300;28;24857;-61
2021/09/21 02:40:35;;;;;;;6.20;5.70;;;;;;;;;;5126520;28;24474;-61
2021/09/21 02:43:01;;;;;;;6.67;6.17;;;;;;;;;;5124174;28;24420;-61
2021/09/21 02:45:26;;;;;;;6.70;6.13;;;;;;;;;;5120637;28;24866;-61
2021/09/21 02:47:51;;;;;;;6.10;5.60;;;;;;;;;;5125555;28;24470;-61
2021/09/21 02:50:16;;;;;;;6.47;5.97;;;;;;;;;;5120641;27;24414;-60
2021/09/21 02:52:42;;;;;;;6.45;5.95;;;;;;;;;;5124792;27;24700;-61
2021/09/21 02:55:07;;;;;;;6.00;5.60;;;;;;;;;;5121176;27;24964;-60
2021/09/21 02:57:36;;;;;;;6.20;5.60;;;;;;;;;;5124444;27;24500;-61
2021/09/21 03:00:03;;;;;;;5.95;5.47;;;;;;;;;;5127761;27;24413;-61
2021/09/21 03:02:31;;;;;;;5.35;4.95;;;;;;;;;;5117976;27;24416;-61
2021/09/21 03:05:00;;;;;;;6.30;5.80;;;;;;;;;;5128810;27;24420;-61
2021/09/21 03:07:31;;;;;;;6.30;5.80;;;;;;;;;;5123868;27;25225;-60
2021/09/21 03:13:19;;;;;;;7.20;6.55;;;;;;;;;;5115332;27;24583;-61
2021/09/21 03:18:11;;;;;;;7.47;6.97;;;;;;;;;;5120833;27;24492;-60
2021/09/21 03:20:36;;;;;;;8.18;7.57;;;;;;;;;;5124142;27;24524;-60
2021/09/21 03:23:02;;;;;;;8.10;7.40;;;;;;;;;;5122191;27;24417;-61
2021/09/21 03:25:27;;;;;;;7.65;7.05;;;;;;;;;;5127974;27;24436;-60
2021/09/21 03:27:52;;;;;;;8.50;7.90;;;;;;;;;;5127791;27;24420;-61
2021/09/21 03:30:17;;;;;;;8.73;8.00;;;;;;;;;;5114863;27;24490;-61
2021/09/21 03:32:42;;;;;;;7.72;7.13;;;;;;;;;;5116891;27;24422;-61
2021/09/21 03:35:08;;;;;;;6.32;5.93;;;;;;;;;;5127871;27;24425;-61
2021/09/21 03:37:34;;;;;;;7.38;6.78;;;;;;;;;;5117969;27;24990;-61
2021/09/21 03:39:59;;;;;;;7.50;6.90;;;;;;;;;;5119521;27;24793;-61
2021/09/21 03:42:24;;;;;;;7.27;6.67;;;;;;;;;;5125167;27;24970;-61
2021/09/21 03:44:49;;;;;;;6.63;6.10;;;;;;;;;;5115524;27;24426;-61
2021/09/21 03:47:14;;;;;;;6.22;5.72;;;;;;;;;;5125467;27;24421;-61
2021/09/21 03:49:40;;;;;;;7.13;6.63;;;;;;;;;;5110207;27;24767;-60
2021/09/21 03:52:05;;;;;;;8.10;7.50;;;;;;;;;;5112533;27;24440;-61
2021/09/21 03:54:30;;;;;;;7.30;6.60;;;;;;;;;;5113462;27;24452;-60
2021/09/21 03:56:55;;;;;;;6.60;6.10;;;;;;;;;;5121604;27;24428;-60
2021/09/21 03:59:22;;;;;;;6.90;6.30;;;;;;;;;;5126933;27;24499;-60
2021/09/21 04:01:47;;;;;;;7.00;6.40;;;;;;;;;;5112227;27;25368;-60
2021/09/21 04:04:13;;;;;;;7.00;6.50;;;;;;;;;;5123507;27;24488;-60
2021/09/21 04:06:38;;;;;;;7.20;6.50;;;;;;;;;;5107948;28;24519;-60
2021/09/21 04:09:03;;;;;;;7.70;7.05;;;;;;;;;;5126726;27;24466;-60
2021/09/21 04:11:28;;;;;;;6.30;5.80;;;;;;;;;;5126000;27;24465;-61
2021/09/21 04:13:54;;;;;;;6.97;6.30;;;;;;;;;;5125522;27;24835;-61
2021/09/21 04:16:19;;;;;;;7.07;6.47;;;;;;;;;;5118253;27;24481;-61
2021/09/21 04:18:44;;;;;;;6.20;5.70;;;;;;;;;;5123100;27;24861;-60
2021/09/21 04:21:09;;;;;;;7.00;6.40;;;;;;;;;;5124359;27;25025;-61
2021/09/21 04:23:35;;;;;;;6.63;6.03;;;;;;;;;;5118842;27;24463;-60
2021/09/21 04:26:00;;;;;;;6.73;6.23;;;;;;;;;;5120832;27;24530;-62
2021/09/21 04:28:25;;;;;;;6.80;6.30;;;;;;;;;;5115846;27;24549;-61
2021/09/21 04:30:51;;;;;;;7.40;6.80;;;;;;;;;;5122521;27;24405;-60
2021/09/21 04:33:17;;;;;;;6.77;6.27;;;;;;;;;;5110275;27;24433;-60
2021/09/21 04:35:42;;;;;;;6.50;6.00;;;;;;;;;;5111135;27;24421;-61
2021/09/21 04:38:08;;;;;;;6.60;6.10;;;;;;;;;;5119703;27;24773;-60
2021/09/21 04:40:34;;;;;;;6.40;5.90;;;;;;;;;;5112454;27;24508;-60
2021/09/21 04:42:59;;;;;;;6.65;6.15;;;;;;;;;;5117052;27;24665;-60
2021/09/21 04:45:24;;;;;;;6.45;5.95;;;;;;;;;;5118605;27;24436;-60
2021/09/21 04:47:49;;;;;;;6.13;5.73;;;;;;;;;;5124559;27;24554;-60
2021/09/21 04:50:14;;;;;;;6.00;5.50;;;;;;;;;;5117530;27;24417;-60
2021/09/21 04:52:40;;;;;;;6.27;5.77;;;;;;;;;;5088015;28;24894;-60
2021/09/21 04:55:06;;;;;;;7.35;6.75;;;;;;;;;;5124386;27;24421;-60
2021/09/21 04:57:31;;;;;;;5.90;5.50;;;;;;;;;;5122081;27;24428;-60
2021/09/21 04:59:56;;;;;;;6.70;6.20;;;;;;;;;;5113111;27;24886;-60
2021/09/21 05:02:21;;;;;;;6.63;6.10;;;;;;;;;;5123916;27;24397;-61
2021/09/21 05:04:46;;;;;;;7.00;6.40;;;;;;;;;;5119815;27;24517;-59
2021/09/21 05:07:12;;;;;;;7.00;6.40;;;;;;;;;;5117167;27;24517;-60
2021/09/21 05:09:37;;;;;;;7.03;6.43;;;;;;;;;;5113253;27;25086;-60
2021/09/21 05:12:02;;;;;;;6.45;5.85;;;;;;;;;;5108789;27;24653;-60
2021/09/21 05:14:29;;;;;;;6.90;6.40;;;;;;;;;;5120652;27;24420;-60
2021/09/21 05:16:54;;;;;;;6.32;5.82;;;;;;;;;;5121170;27;24950;-60
2021/09/21 05:19:19;;;;;;;5.87;5.37;;;;;;;;;;5104032;27;24428;-60
2021/09/21 05:21:44;;;;;;;6.55;6.05;;;;;;;;;;5113133;27;24417;-60
2021/09/21 05:24:09;;;;;;;6.93;6.32;;;;;;;;;;5110246;27;24412;-60
2021/09/21 05:26:35;;;;;;;7.00;6.30;;;;;;;;;;5104681;27;24525;-60
2021/09/21 05:29:00;;;;;;;6.47;5.97;;;;;;;;;;5102156;28;24510;-60
2021/09/21 05:31:25;;;;;;;6.70;6.20;;;;;;;;;;5100739;28;24429;-60
2021/09/21 05:33:50;;;;;;;5.90;5.40;;;;;;;;;;5103460;28;24557;-62
2021/09/21 05:36:15;;;;;;;6.00;5.50;;;;;;;;;;5119092;27;24749;-62
2021/09/21 05:38:41;;;;;;;5.90;5.40;;;;;;;;;;5117223;28;25057;-62
2021/09/21 05:41:06;;;;;;;5.80;5.40;;;;;;;;;;5122987;28;24536;-60
2021/09/21 05:43:31;;;;;;;6.10;5.60;;;;;;;;;;5121317;28;24480;-60
2021/09/21 05:45:56;;;;;;;6.80;6.30;;;;;;;;;;5120275;28;24457;-60
2021/09/21 05:48:21;;;;;;;6.78;6.18;;;;;;;;;;5118959;28;24752;-60
2021/09/21 05:50:46;;;;;;;7.30;6.70;;;;;;;;;;5111108;28;24408;-62
2021/09/21 05:53:11;;;;;;;6.90;6.30;;;;;;;;;;5098821;28;24459;-62
2021/09/21 05:55:37;;;;;;;6.50;6.00;;;;;;;;;;5109846;28;24405;-62
2021/09/21 05:58:02;;;;;;;5.70;5.30;;;;;;;;;;5122952;28;24408;-62
2021/09/21 06:00:27;;;;;;;6.18;5.60;;;;;;;;;;5121429;28;24393;-62
2021/09/21 06:02:52;;;;;;;6.10;5.60;;;;;;;;;;5123645;28;24385;-62
2021/09/21 06:05:17;;;;;;;6.50;6.00;;;;;;;;;;5107998;28;24961;-62
2021/09/21 06:07:50;;;;;;;6.37;5.77;;;;;;;;;;5115612;28;24466;-60
2021/09/21 06:10:16;;;;;;;5.10;4.70;;;;;;;;;;5117314;28;24940;-60
2021/09/21 06:12:41;;;;;;;5.40;5.00;;;;;;;;;;5123400;28;24381;-62
2021/09/21 06:15:07;;;;;;;5.30;4.90;;;;;;;;;;5123108;28;24441;-62
2021/09/21 06:17:32;;;;;;;5.80;5.30;;;;;;;;;;5117007;28;24955;-59
2021/09/21 06:19:57;;;;;;;6.00;5.10;;;;;;;;;;5105009;28;24955;-60
2021/09/21 06:22:22;;;;;;;5.03;4.63;;;;;;;;;;5120674;28;24508;-60
2021/09/21 06:24:47;;;;;;;7.30;6.70;;;;;;;;;;5119371;27;24793;-60
2021/09/21 06:27:13;;;;;;;7.70;6.90;;;;;;;;;;5122184;27;24777;-62
2021/09/21 06:29:38;;;;;;;8.00;7.27;;;;;;;;;;5115700;27;24429;-62
2021/09/21 06:32:03;;;;;;;8.30;7.57;;;;;;;;;;5109950;27;24784;-60
2021/09/21 06:34:28;;;;;;;7.00;6.50;;;;;;;;;;5115861;27;24440;-60
2021/09/21 06:36:54;;;;;;;6.93;6.32;;;;;;;;;;5109453;27;24964;-60
2021/09/21 06:39:19;;;;;;;6.73;6.13;;;;;;;;;;5104033;28;24408;-60
2021/09/21 06:41:45;;;;;;;7.32;6.53;;;;;;;;;;5122834;27;24639;-60
2021/09/21 06:44:10;;;;;;;7.50;6.80;;;;;;;;;;5111147;27;24417;-60
2021/09/21 06:46:35;;;;;;;7.65;7.05;;;;;;;;;;5109141;27;24462;-61
2021/09/21 06:49:00;;;;;;;7.80;7.10;;;;;;;;;;5105678;27;24477;-61
2021/09/21 06:51:25;;;;;;;9.68;8.00;;;;;;;;;;5109873;27;24449;-60
2021/09/21 06:53:50;;;;;;;8.70;7.83;;;;;;;;;;5108208;27;24410;-61
2021/09/21 06:56:27;;;;;;;6.10;5.60;;;;;;;;;;5120651;27;24516;-63
2021/09/21 06:58:52;;;;;;;8.13;7.53;;;;;;;;;;5115511;27;24463;-63
2021/09/21 07:01:17;;;;;;;7.17;6.30;;;;;;;;;;5123333;27;24459;-63
2021/09/21 07:03:42;;;;;;;9.23;8.52;;;;;;;;;;5120376;27;24434;-62
2021/09/21 07:06:07;;;;;;;7.93;7.25;;;;;;;;;;5122764;27;25035;-63
2021/09/21 07:08:33;;;;;;;7.93;7.25;;;;;;;;;;5109548;28;24386;-62
2021/09/21 07:10:58;;;;;;;8.00;7.40;;;;;;;;;;5125737;27;24448;-63
2021/09/21 07:13:24;;;;;;;8.03;7.33;;;;;;;;;;5118345;27;24513;-63
2021/09/21 07:15:49;;;;;;;7.10;6.60;;;;;;;;;;5114563;27;24512;-63
2021/09/21 07:18:14;;;;;;;7.75;7.15;;;;;;;;;;5119797;27;24425;-63
2021/09/21 07:20:39;;;;;;;6.13;5.63;;;;;;;;;;5123986;27;25331;-61
2021/09/21 07:23:04;;;;;;;6.10;5.70;;;;;;;;;;5129161;27;24410;-61
2021/09/21 07:25:32;;;;;;;6.03;5.43;;;;;;;;;;5129965;27;24416;-61
2021/09/21 07:27:58;;;;;;;6.00;5.50;;;;;;;;;;5129152;27;24958;-61
2021/09/21 07:30:23;;;;;;;5.80;5.40;;;;;;;;;;5129328;27;24444;-61
2021/09/21 07:32:48;;;;;;;5.10;4.70;;;;;;;;;;5129493;27;24456;-61
2021/09/21 07:35:14;;;;;;;5.47;5.07;;;;;;;;;;5125197;27;24421;-61
2021/09/21 07:37:39;;;;;;;6.00;5.60;;;;;;;;;;5122834;27;24952;-61
2021/09/21 07:40:05;;;;;;;6.93;6.40;;;;;;;;;;5124352;27;24958;-62
2021/09/21 07:42:30;;;;;;;7.37;6.77;;;;;;;;;;5123684;27;24909;-61
2021/09/21 07:44:56;;;;;;;7.20;6.50;;;;;;;;;;5119282;27;24508;-61
2021/09/21 07:47:21;;;;;;;6.38;5.80;;;;;;;;;;5121187;27;24505;-63
2021/09/21 07:49:47;;;;;;;6.50;5.90;;;;;;;;;;5123362;27;24907;-62
2021/09/21 07:52:13;;;;;;;6.03;5.57;;;;;;;;;;5125221;27;24384;-63
2021/09/21 07:54:38;;;;;;;5.88;5.38;;;;;;;;;;5122865;27;24417;-63
2021/09/21 07:57:04;;;;;;;5.90;5.40;;;;;;;;;;5120886;27;24421;-63
2021/09/21 07:59:29;;;;;;;5.93;5.43;;;;;;;;;;5119265;27;24389;-63
2021/09/21 08:01:54;;;;;;;6.10;5.60;;;;;;;;;;5114246;27;24538;-62
2021/09/21 08:04:19;;;;;;;6.63;6.10;;;;;;;;;;5122992;27;24956;-62
2021/09/21 08:06:44;;;;;;;5.30;4.90;;;;;;;;;;5124396;27;24437;-63
2021/09/21 08:09:10;;;;;;;6.32;5.80;;;;;;;;;;5124288;27;24404;-62
2021/09/21 08:11:35;;;;;;;5.93;5.50;;;;;;;;;;5118099;27;24967;-63
2021/09/21 08:14:04;;;;;;;5.80;5.40;;;;;;;;;;5119311;27;24388;-63
2021/09/21 08:16:30;;;;;;;6.35;5.85;;;;;;;;;;5120469;27;24417;-62
2021/09/21 08:18:55;;;;;;;6.28;5.78;;;;;;;;;;5122538;27;24401;-62
2021/09/21 08:21:20;;;;;;;5.90;5.40;;;;;;;;;;5122128;27;24396;-62
2021/09/21 08:23:45;;;;;;;6.30;5.80;;;;;;;;;;5124955;27;24485;-62
2021/09/21 08:26:11;;;;;;;6.00;5.50;;;;;;;;;;5120155;27;24486;-63
2021/09/21 08:28:36;;;;;;;5.07;4.68;;;;;;;;;;5118731;27;24783;-63
2021/09/21 08:31:01;;;;;;;6.25;5.65;;;;;;;;;;5118712;27;24393;-62
2021/09/21 08:33:26;;;;;;;6.50;6.10;;;;;;;;;;5122185;27;24432;-62
2021/09/21 08:35:51;;;;;;;5.20;4.80;;;;;;;;;;5124244;27;24489;-62
2021/09/21 08:38:16;;;;;;;5.87;5.37;;;;;;;;;;5123792;27;25016;-62
2021/09/21 08:40:42;;;;;;;5.90;5.40;;;;;;;;;;5118805;27;24415;-62
2021/09/21 08:43:07;;;;;;;6.50;5.90;;;;;;;;;;5120176;27;24492;-63
2021/09/21 08:45:32;;;;;;;6.20;5.63;;;;;;;;;;5120765;27;24775;-64
2021/09/21 08:47:57;;;;;;;5.63;5.20;;;;;;;;;;5122514;27;24791;-63
2021/09/21 08:50:23;;;;;;;6.60;6.10;;;;;;;;;;5121907;27;24720;-64
2021/09/21 08:52:48;;;;;;;5.45;5.05;;;;;;;;;;5123902;27;24396;-63
2021/09/21 08:55:14;;;;;;;6.10;5.60;;;;;;;;;;5119904;27;24419;-63
2021/09/21 08:57:40;;;;;;;6.72;6.22;;;;;;;;;;5118060;27;24916;-63
2021/09/21 09:00:06;;;;;;;6.05;5.55;;;;;;;;;;5120007;27;24466;-63
2021/09/21 09:02:33;;;;;;;6.43;5.93;;;;;;;;;;5123672;27;24408;-63
2021/09/21 09:05:04;;;;;;;5.97;5.47;;;;;;;;;;5105666;27;24420;-61
2021/09/21 09:07:36;;;;;;;6.57;6.07;;;;;;;;;;5119821;27;24385;-62
2021/09/21 09:10:03;;;;;;;6.75;6.20;;;;;;;;;;5117483;27;24936;-62
2021/09/21 09:12:30;;;;;;;5.68;5.18;;;;;;;;;;5119826;27;24611;-62
2021/09/21 09:14:55;;;;;;;4.60;4.30;;;;;;;;;;5123583;27;24983;-62
2021/09/21 09:17:20;;;;;;;5.03;4.63;;;;;;;;;;5121566;27;24484;-62
2021/09/21 09:19:49;;;;;;;5.70;5.20;;;;;;;;;;5118911;27;24973;-62
2021/09/21 09:22:16;;;;;;;6.05;5.45;;;;;;;;;;5119309;27;24485;-61
2021/09/21 09:24:45;;;;;;;5.87;5.47;;;;;;;;;;5117649;27;24425;-62
2021/09/21 09:27:10;;;;;;;5.55;5.15;;;;;;;;;;5123160;27;24432;-61
2021/09/21 09:29:35;;;;;;;5.30;4.90;;;;;;;;;;5120955;27;24981;-60
2021/09/21 09:32:01;;;;;;;4.53;4.23;;;;;;;;;;5121230;27;24537;-60
2021/09/21 09:34:27;;;;;;;5.18;4.78;;;;;;;;;;5117250;27;24573;-61
2021/09/21 09:36:53;;;;;;;5.20;4.80;;;;;;;;;;5119837;27;24397;-61
2021/09/21 09:39:22;;;;;;;5.95;5.45;;;;;;;;;;5120697;27;24393;-61
2021/09/21 09:41:49;;;;;;;5.63;5.13;;;;;;;;;;5122309;28;24453;-61
2021/09/21 09:44:15;;;;;;;5.10;4.70;;;;;;;;;;5123021;28;24956;-61
2021/09/21 09:46:44;;;;;;;4.35;4.05;;;;;;;;;;5118985;28;24420;-61
2021/09/21 09:49:10;;;;;;;6.13;5.53;;;;;;;;;;5118949;28;24707;-61
2021/09/21 09:51:42;;;;;;;6.57;6.07;;;;;;;;;;5117271;28;24416;-60
2021/09/21 09:54:07;;;;;;;5.05;4.55;;;;;;;;;;5121298;28;24518;-61
2021/09/21 09:56:33;;;;;;;5.70;5.20;;;;;;;;;;5104546;28;24508;-61
2021/09/21 09:58:58;;;;;;;5.80;5.30;;;;;;;;;;5122837;27;24412;-61
2021/09/21 10:01:23;;;;;;;5.90;5.40;;;;;;;;;;5124881;27;24425;-61
2021/09/21 10:03:48;;;;;;;4.90;4.57;;;;;;;;;;5121566;27;24384;-61
2021/09/21 10:06:14;;;;;;;5.05;4.65;;;;;;;;;;5123074;27;24494;-61
2021/09/21 10:08:39;;;;;;;4.73;4.33;;;;;;;;;;5125298;27;24399;-61
2021/09/21 10:11:04;;;;;;;5.45;5.00;;;;;;;;;;5126757;27;24389;-61
2021/09/21 10:13:29;;;;;;;6.10;5.60;;;;;;;;;;5124737;27;24508;-61
2021/09/21 10:15:54;;;;;;;6.20;5.60;;;;;;;;;;5123376;27;24500;-61
2021/09/21 10:18:20;;;;;;;5.80;5.30;;;;;;;;;;5122830;27;24401;-61
2021/09/21 10:20:56;;;;;;;5.55;5.05;;;;;;;;;;5122943;27;24439;-60
2021/09/21 10:23:22;;;;;;;6.10;5.60;;;;;;;;;;5123957;27;24474;-61
2021/09/21 10:25:49;;;;;;;6.35;5.80;;;;;;;;;;5126291;27;24396;-63
2021/09/21 10:28:16;;;;;;;5.80;5.30;;;;;;;;;;5126463;27;24473;-60
2021/09/21 10:30:54;;;;;;;6.40;5.80;;;;;;;;;;5121293;27;24408;-63
2021/09/21 10:33:22;;;;;;;5.75;5.30;;;;;;;;;;5122243;27;24440;-60
2021/09/21 10:35:49;;;;;;;7.18;6.47;;;;;;;;;;5120821;27;24886;-60
2021/09/21 10:38:14;;;;;;;5.20;4.75;;;;;;;;;;5122449;27;25159;-61
2021/09/21 10:40:41;;;;;;;5.50;5.00;;;;;;;;;;5126960;27;24484;-60
2021/09/21 10:43:08;;;;;;;5.93;5.43;;;;;;;;;;5126284;27;24446;-61
2021/09/21 10:45:33;;;;;;;5.40;4.90;;;;;;;;;;5124280;27;24421;-61
2021/09/21 10:47:59;;;;;;;4.00;3.70;;;;;;;;;;5121929;27;24405;-61
2021/09/21 10:50:25;;;;;;;5.60;4.20;;;;;;;;;;5122376;27;24476;-60
2021/09/21 10:53:00;;;;;;;5.00;4.60;;;;;;;;;;5123228;27;24492;-61
2021/09/21 10:55:26;;;;;;;4.80;4.40;;;;;;;;;;5125607;27;24412;-61
2021/09/21 10:57:52;;;;;;;5.10;4.70;;;;;;;;;;5126132;27;24402;-62
2021/09/21 11:00:21;;;;;;;4.35;4.05;;;;;;;;;;5124135;27;24956;-63
2021/09/21 11:02:48;;;;;;;5.55;5.15;;;;;;;;;;5122346;27;24508;-62
2021/09/21 11:05:16;;;;;;;4.72;4.32;;;;;;;;;;5121424;27;25002;-62
2021/09/21 11:07:52;;;;;;;4.13;3.83;;;;;;;;;;5120137;27;24971;-63
2021/09/21 11:10:18;;;;;;;6.55;6.05;;;;;;;;;;5123410;27;24427;-61
2021/09/21 11:12:47;;;;;;;5.70;5.30;;;;;;;;;;5124782;27;24391;-61
2021/09/21 11:15:13;;;;;;;6.13;5.63;;;;;;;;;;5125352;27;25033;-61
2021/09/21 11:17:38;;;;;;;6.82;6.32;;;;;;;;;;5120218;27;24985;-61
2021/09/21 11:20:04;;;;;;;5.47;5.07;;;;;;;;;;5119704;27;24403;-61
2021/09/21 11:22:29;;;;;;;4.97;4.57;;;;;;;;;;5125483;27;24772;-60
2021/09/21 11:25:03;;;;;;;6.03;5.53;;;;;;;;;;5125717;27;24804;-61
2021/09/21 11:27:28;;;;;;;5.80;5.30;;;;;;;;;;5123096;27;24460;-61
2021/09/21 11:30:01;;;;;;;5.67;5.17;;;;;;;;;;5125659;27;24389;-61
2021/09/21 11:32:26;;;;;;;6.72;6.13;;;;;;;;;;5119240;27;24425;-61
2021/09/21 11:34:58;;;;;;;5.40;5.00;;;;;;;;;;5123811;27;24370;-61
2021/09/21 11:37:23;;;;;;;5.82;5.22;;;;;;;;;;5123106;27;24385;-62
2021/09/21 11:39:48;;;;;;;7.63;6.93;;;;;;;;;;5124575;27;24424;-61
2021/09/21 11:42:24;;;;;;;6.50;5.90;;;;;;;;;;5124683;27;24420;-61
2021/09/21 11:44:49;;;;;;;6.30;5.72;;;;;;;;;;5120997;27;24923;-61
2021/09/21 11:47:15;;;;;;;6.35;5.75;;;;;;;;;;5121751;27;25084;-61
2021/09/21 11:49:50;;;;;;;5.73;5.23;;;;;;;;;;5119152;27;24496;-61
2021/09/21 11:52:15;;;;;;;5.65;5.13;;;;;;;;;;5120992;27;24444;-61
2021/09/21 11:54:40;;;;;;;4.80;4.40;;;;;;;;;;5122846;27;24447;-61
2021/09/21 11:57:05;;;;;;;5.70;5.20;;;;;;;;;;5124877;27;24408;-61
2021/09/21 11:59:30;;;;;;;5.00;4.50;;;;;;;;;;5122478;27;24404;-61
2021/09/21 12:04:47;;;;;;;5.90;5.30;;;;;;;;;;5116061;27;24471;-60
2021/09/21 12:07:13;;;;;;;5.53;5.03;;;;;;;;;;5127592;27;24417;-60
2021/09/21 12:09:38;;;;;;;6.25;5.65;;;;;;;;;;5126479;27;24461;-60
2021/09/21 12:12:13;;;;;;;5.60;5.10;;;;;;;;;;5128925;27;24944;-62
2021/09/21 12:14:39;;;;;;;6.00;5.40;;;;;;;;;;5125087;27;24528;-62
2021/09/21 12:17:04;;;;;;;6.22;5.63;;;;;;;;;;5127575;27;25031;-62
2021/09/21 12:19:29;;;;;;;5.27;4.87;;;;;;;;;;5128228;27;24440;-62
2021/09/21 12:21:57;;;;;;;5.30;4.90;;;;;;;;;;5127759;27;24416;-61
2021/09/21 12:24:28;;;;;;;5.70;5.13;;;;;;;;;;5124084;27;24421;-61
2021/09/21 12:27:00;;;;;;;5.13;4.72;;;;;;;;;;5126407;27;24452;-61
2021/09/21 12:29:30;;;;;;;5.30;4.90;;;;;;;;;;5109433;27;24397;-62
2021/09/21 12:31:55;;;;;;;7.18;4.80;;;;;;;;;;5121354;27;24467;-61
2021/09/21 12:34:20;;;;;;;6.00;5.50;;;;;;;;;;5107474;28;25094;-62
2021/09/21 12:36:48;;;;;;;4.90;4.50;;;;;;;;;;5116999;27;24420;-61
2021/09/21 12:39:14;;;;;;;5.50;5.00;;;;;;;;;;5127910;27;24464;-61
2021/09/21 12:41:41;;;;;;;5.55;4.80;;;;;;;;;;5126806;27;24417;-62
2021/09/21 12:44:09;;;;;;;5.60;5.10;;;;;;;;;;5109489;27;21246;-61
2021/09/21 12:46:35;;;;;;;4.70;4.30;;;;;;;;;;5121616;27;24425;-62
2021/09/21 12:49:01;;;;;;;4.80;4.40;;;;;;;;;;5125016;27;24409;-61
2021/09/21 12:51:37;;;;;;;4.60;4.30;;;;;;;;;;5107938;27;24952;-61
2021/09/21 12:54:03;;;;;;;4.90;4.50;;;;;;;;;;5101276;28;24401;-62
2021/09/21 12:56:29;;;;;;;4.50;4.10;;;;;;;;;;5117208;27;24415;-61
2021/09/21 12:59:01;;;;;;;3.85;3.55;;;;;;;;;;5123056;27;24453;-62
2021/09/21 13:01:26;;;;;;;3.88;3.58;;;;;;;;;;5121498;27;25286;-62
2021/09/21 13:03:52;;;;;;;4.30;3.90;;;;;;;;;;5118164;27;24400;-63
2021/09/21 13:06:17;;;;;;;4.83;4.10;;;;;;;;;;5121848;27;24819;-62
2021/09/21 13:08:42;;;;;;;4.43;4.10;;;;;;;;;;5123125;27;24420;-61
2021/09/21 13:11:08;;;;;;;4.47;4.07;;;;;;;;;;5123298;27;25085;-61
2021/09/21 13:13:33;;;;;;;4.47;4.07;;;;;;;;;;5121898;27;24929;-62
2021/09/21 13:16:00;;;;;;;5.70;4.20;;;;;;;;;;5117598;27;24417;-61
2021/09/21 13:18:25;;;;;;;4.63;4.32;;;;;;;;;;5117567;27;24489;-62
2021/09/21 13:20:50;;;;;;;4.50;4.10;;;;;;;;;;5121141;27;24488;-60
2021/09/21 13:23:16;;;;;;;4.70;4.30;;;;;;;;;;5121423;27;24390;-61
2021/09/21 13:25:41;;;;;;;4.20;3.90;;;;;;;;;;5120809;27;24508;-60
2021/09/21 13:28:06;;;;;;;4.50;4.10;;;;;;;;;;5120970;27;24417;-61
2021/09/21 13:30:32;;;;;;;5.18;4.78;;;;;;;;;;5117217;27;24405;-60
2021/09/21 13:32:58;;;;;;;6.70;5.30;;;;;;;;;;5116615;27;24606;-60
2021/09/21 13:35:24;;;;;;;5.00;4.60;;;;;;;;;;5120168;27;24393;-60
2021/09/21 13:37:50;;;;;;;4.90;4.40;;;;;;;;;;5123206;27;24389;-60
2021/09/21 13:40:17;;;;;;;5.32;4.50;;;;;;;;;;5123086;27;24493;-60
2021/09/21 13:42:42;;;;;;;4.00;3.70;;;;;;;;;;5119122;28;24417;-60
2021/09/21 13:45:07;;;;;;;5.20;4.50;;;;;;;;;;5116898;28;24517;-62
2021/09/21 13:47:33;;;;;;;4.90;4.50;;;;;;;;;;5119023;28;24549;-60
2021/09/21 13:49:58;;;;;;;4.40;4.10;;;;;;;;;;5122352;28;24419;-60
2021/09/21 13:52:23;;;;;;;4.30;3.90;;;;;;;;;;5120885;28;24564;-61
2021/09/21 13:54:48;;;;;;;4.70;4.40;;;;;;;;;;5120441;28;24555;-61
2021/09/21 13:57:14;;;;;;;3.70;3.40;;;;;;;;;;5119184;28;24935;-60
2021/09/21 13:59:39;;;;;;;4.32;4.03;;;;;;;;;;5116610;28;24425;-60
2021/09/21 14:02:06;;;;;;;4.40;4.00;;;;;;;;;;5121207;28;24413;-60
2021/09/21 14:04:31;;;;;;;4.60;4.20;;;;;;;;;;5120504;28;25280;-61
2021/09/21 14:06:57;;;;;;;4.10;3.80;;;;;;;;;;5122835;28;24427;-61
2021/09/21 14:09:22;;;;;;;4.47;4.07;;;;;;;;;;5118373;28;24543;-59
2021/09/21 14:11:47;;;;;;;4.60;4.20;;;;;;;;;;5117612;28;24389;-61
2021/09/21 14:14:13;;;;;;;4.85;4.53;;;;;;;;;;5118940;28;24870;-61
2021/09/21 14:16:38;;;;;;;4.10;3.80;;;;;;;;;;5120633;28;24405;-62
2021/09/21 14:19:03;;;;;;;4.90;4.40;;;;;;;;;;5122517;28;24526;-61
2021/09/21 14:21:28;;;;;;;4.60;4.20;;;;;;;;;;5120697;28;24427;-61
2021/09/21 14:23:53;;;;;;;4.87;4.47;;;;;;;;;;5122334;28;24750;-61
2021/09/21 14:26:19;;;;;;;5.00;4.60;;;;;;;;;;5118012;28;24418;-61
2021/09/21 14:28:44;;;;;;;4.68;4.28;;;;;;;;;;5122249;28;24892;-61
2021/09/21 14:31:09;;;;;;;5.40;4.90;;;;;;;;;;5122391;28;24833;-61
2021/09/21 14:33:35;;;;;;;5.00;4.50;;;;;;;;;;5120660;28;24405;-60
2021/09/21 14:36:03;;;;;;;4.20;3.90;;;;;;;;;;5120668;28;24413;-61
2021/09/21 14:38:28;;;;;;;4.20;3.90;;;;;;;;;;5116655;28;24486;-62
2021/09/21 14:40:53;;;;;;;5.50;5.00;;;;;;;;;;5120452;28;24389;-62
2021/09/21 14:43:19;;;;;;;5.70;4.60;;;;;;;;;;5120787;28;24920;-60
2021/09/21 14:45:44;;;;;;;4.70;4.30;;;;;;;;;;5123607;27;25237;-62
2021/09/21 14:48:09;;;;;;;5.80;4.97;;;;;;;;;;5123754;27;24444;-59